createdAt,value
2018-11-07T00:00:08.308Z,18.67
2018-11-07T00:01:08.001Z,18.66
2018-11-07T00:02:07.988Z,18.69
2018-11-07T00:03:08.257Z,18.67
2018-11-07T00:04:08.127Z,18.65
2018-11-07T00:05:08.198Z,18.68
2018-11-07T00:06:07.970Z,18.66
2018-11-07T00:07:08.576Z,18.64
2018-11-07T00:08:08.124Z,18.65
2018-11-07T00:09:08.060Z,18.65
2018-11-07T00:10:08.173Z,18.66
2018-11-07T00:11:08.121Z,18.65
2018-11-07T00:12:08.114Z,18.66
2018-11-07T00:13:07.951Z,18.64
2018-11-07T00:14:08.175Z,18.66
2018-11-07T00:15:08.267Z,18.66
2018-11-07T00:16:08.397Z,18.65
2018-11-07T00:17:08.627Z,18.65
2018-11-07T00:18:08.380Z,18.65
2018-11-07T00:19:08.403Z,18.65
2018-11-07T00:20:07.957Z,18.67
2018-11-07T00:21:08.103Z,18.67
2018-11-07T00:22:07.992Z,18.65
2018-11-07T00:23:08.171Z,18.67
2018-11-07T00:24:08.160Z,18.64
2018-11-07T00:25:08.237Z,18.65
2018-11-07T00:26:08.253Z,18.64
2018-11-07T00:27:08.051Z,18.62
2018-11-07T00:28:08.190Z,18.65
2018-11-07T00:29:07.928Z,18.65
2018-11-07T00:30:08.147Z,18.63
2018-11-07T00:31:08.386Z,18.64
2018-11-07T00:32:08.126Z,18.63
2018-11-07T00:33:08.259Z,18.64
2018-11-07T00:34:07.941Z,18.63
2018-11-07T00:35:08.425Z,18.62
2018-11-07T00:36:08.921Z,18.62
2018-11-07T00:37:08.050Z,18.61
2018-11-07T00:38:08.632Z,18.63
2018-11-07T00:39:08.366Z,18.62
2018-11-07T00:40:08.083Z,18.6
2018-11-07T00:41:08.874Z,18.63
2018-11-07T00:42:08.141Z,18.62
2018-11-07T00:43:08.184Z,18.62
2018-11-07T00:44:08.008Z,18.61
2018-11-07T00:45:08.522Z,18.61
2018-11-07T00:46:08.028Z,18.61
2018-11-07T00:47:08.178Z,18.6
2018-11-07T00:48:07.987Z,18.61
2018-11-07T00:49:08.608Z,18.62
2018-11-07T00:50:07.960Z,18.62
2018-11-07T00:51:08.037Z,18.63
2018-11-07T00:52:08.654Z,18.61
2018-11-07T00:53:08.075Z,18.61
2018-11-07T00:54:08.067Z,18.6
2018-11-07T00:55:07.926Z,18.59
2018-11-07T00:56:08.358Z,18.61
2018-11-07T00:57:08.279Z,18.6
2018-11-07T00:58:08.377Z,18.61
2018-11-07T00:59:08.383Z,18.62
2018-11-07T01:00:08.267Z,18.63
2018-11-07T01:01:08.069Z,18.61
2018-11-07T01:02:08.225Z,18.62
2018-11-07T01:03:08.052Z,18.62
2018-11-07T01:04:08.114Z,18.6
2018-11-07T01:05:07.971Z,18.6
2018-11-07T01:06:08.171Z,18.6
2018-11-07T01:07:08.182Z,18.62
2018-11-07T01:08:08.028Z,18.59
2018-11-07T01:09:08.342Z,18.61
2018-11-07T01:10:08.028Z,18.59
2018-11-07T01:11:08.217Z,18.6
2018-11-07T01:12:08.258Z,18.59
2018-11-07T01:13:08.092Z,18.59
2018-11-07T01:14:07.927Z,18.6
2018-11-07T01:15:08.281Z,18.6
2018-11-07T01:16:08.206Z,18.6
2018-11-07T01:17:08.019Z,18.61
2018-11-07T01:18:08.077Z,18.6
2018-11-07T01:19:08.220Z,18.59
2018-11-07T01:20:08.067Z,18.6
2018-11-07T01:21:07.944Z,18.6
2018-11-07T01:22:08.077Z,18.58
2018-11-07T01:23:08.164Z,18.58
2018-11-07T01:24:07.987Z,18.57
2018-11-07T01:25:08.399Z,18.57
2018-11-07T01:26:07.921Z,18.57
2018-11-07T01:27:08.048Z,18.56
2018-11-07T01:28:08.029Z,18.56
2018-11-07T01:29:07.990Z,18.58
2018-11-07T01:30:08.186Z,18.56
2018-11-07T01:31:07.974Z,18.57
2018-11-07T01:32:08.090Z,18.57
2018-11-07T01:33:07.939Z,18.58
2018-11-07T01:34:08.098Z,18.58
2018-11-07T01:35:08.265Z,18.58
2018-11-07T01:36:08.004Z,18.59
2018-11-07T01:37:08.139Z,18.61
2018-11-07T01:38:08.172Z,18.6
2018-11-07T01:39:08.363Z,18.58
2018-11-07T01:40:07.935Z,18.59
2018-11-07T01:41:08.446Z,18.6
2018-11-07T01:42:08.000Z,18.59
2018-11-07T01:43:08.437Z,18.6
2018-11-07T01:44:08.196Z,18.59
2018-11-07T01:45:08.126Z,18.57
2018-11-07T01:46:08.189Z,18.56
2018-11-07T01:47:07.968Z,18.57
2018-11-07T01:48:08.107Z,18.6
2018-11-07T01:49:08.127Z,18.58
2018-11-07T01:50:08.354Z,18.59
2018-11-07T01:51:08.230Z,18.6
2018-11-07T01:52:08.035Z,18.6
2018-11-07T01:53:08.359Z,18.57
2018-11-07T01:54:08.394Z,18.56
2018-11-07T01:55:08.117Z,18.59
2018-11-07T01:56:08.175Z,18.6
2018-11-07T01:57:08.082Z,18.59
2018-11-07T01:58:08.536Z,18.58
2018-11-07T01:59:08.320Z,18.59
2018-11-07T02:00:08.034Z,18.57
2018-11-07T02:01:08.101Z,18.58
2018-11-07T02:02:08.226Z,18.58
2018-11-07T02:03:08.166Z,18.55
2018-11-07T02:04:08.574Z,18.57
2018-11-07T02:05:08.278Z,18.57
2018-11-07T02:06:07.974Z,18.57
2018-11-07T02:07:08.202Z,18.57
2018-11-07T02:08:07.888Z,18.56
2018-11-07T02:09:08.393Z,18.56
2018-11-07T02:10:08.586Z,18.57
2018-11-07T02:11:08.594Z,18.56
2018-11-07T02:12:08.137Z,18.57
2018-11-07T02:13:08.025Z,18.56
2018-11-07T02:14:08.191Z,18.56
2018-11-07T02:15:07.992Z,18.56
2018-11-07T02:16:08.317Z,18.55
2018-11-07T02:17:08.157Z,18.56
2018-11-07T02:18:08.846Z,18.56
2018-11-07T02:19:08.132Z,18.55
2018-11-07T02:20:08.311Z,18.56
2018-11-07T02:21:08.397Z,18.57
2018-11-07T02:22:08.014Z,18.55
2018-11-07T02:23:08.408Z,18.57
2018-11-07T02:24:08.101Z,18.55
2018-11-07T02:25:08.068Z,18.54
2018-11-07T02:26:08.457Z,18.55
2018-11-07T02:27:08.356Z,18.58
2018-11-07T02:28:08.023Z,18.57
2018-11-07T02:29:07.881Z,18.56
2018-11-07T02:30:08.061Z,18.53
2018-11-07T02:31:08.113Z,18.52
2018-11-07T02:32:08.060Z,18.51
2018-11-07T02:33:08.372Z,18.56
2018-11-07T02:34:08.020Z,18.55
2018-11-07T02:35:08.360Z,18.54
2018-11-07T02:36:08.054Z,18.56
2018-11-07T02:37:08.116Z,18.54
2018-11-07T02:38:08.180Z,18.53
2018-11-07T02:39:08.055Z,18.52
2018-11-07T02:40:08.179Z,18.54
2018-11-07T02:41:07.912Z,18.52
2018-11-07T02:42:08.016Z,18.53
2018-11-07T02:43:07.952Z,18.51
2018-11-07T02:44:08.030Z,18.53
2018-11-07T02:45:08.110Z,18.52
2018-11-07T02:46:08.412Z,18.54
2018-11-07T02:47:08.128Z,18.54
2018-11-07T02:48:08.034Z,18.52
2018-11-07T02:49:08.038Z,18.52
2018-11-07T02:50:08.108Z,18.52
2018-11-07T02:51:08.041Z,18.53
2018-11-07T02:52:08.243Z,18.56
2018-11-07T02:53:07.960Z,18.54
2018-11-07T02:54:08.230Z,18.53
2018-11-07T02:55:07.993Z,18.53
2018-11-07T02:56:08.213Z,18.53
2018-11-07T02:57:07.868Z,18.55
2018-11-07T02:58:08.027Z,18.52
2018-11-07T02:59:08.124Z,18.54
2018-11-07T03:00:07.973Z,18.52
2018-11-07T03:01:08.203Z,18.51
2018-11-07T03:02:07.902Z,18.54
2018-11-07T03:03:08.602Z,18.53
2018-11-07T03:04:07.933Z,18.52
2018-11-07T03:05:08.122Z,18.51
2018-11-07T03:06:08.138Z,18.52
2018-11-07T03:07:08.457Z,18.5
2018-11-07T03:08:08.103Z,18.5
2018-11-07T03:09:08.187Z,18.51
2018-11-07T03:10:08.100Z,18.5
2018-11-07T03:11:07.983Z,18.53
2018-11-07T03:12:08.038Z,18.48
2018-11-07T03:13:08.065Z,18.49
2018-11-07T03:14:07.994Z,18.51
2018-11-07T03:15:08.438Z,18.5
2018-11-07T03:16:07.972Z,18.51
2018-11-07T03:17:08.018Z,18.52
2018-11-07T03:18:08.440Z,18.48
2018-11-07T03:19:07.981Z,18.5
2018-11-07T03:20:08.193Z,18.52
2018-11-07T03:21:08.052Z,18.49
2018-11-07T03:22:08.055Z,18.52
2018-11-07T03:23:08.003Z,18.52
2018-11-07T03:24:07.980Z,18.5
2018-11-07T03:25:08.098Z,18.48
2018-11-07T03:26:07.981Z,18.52
2018-11-07T03:27:08.085Z,18.5
2018-11-07T03:28:07.899Z,18.48
2018-11-07T03:29:08.358Z,18.49
2018-11-07T03:30:08.249Z,18.47
2018-11-07T03:31:07.981Z,18.5
2018-11-07T03:32:08.144Z,18.49
2018-11-07T03:33:07.946Z,18.5
2018-11-07T03:34:08.245Z,18.52
2018-11-07T03:35:08.279Z,18.51
2018-11-07T03:36:08.051Z,18.51
2018-11-07T03:37:07.905Z,18.5
2018-11-07T03:38:08.092Z,18.51
2018-11-07T03:39:08.291Z,18.51
2018-11-07T03:40:07.934Z,18.53
2018-11-07T03:41:08.203Z,18.5
2018-11-07T03:42:07.939Z,18.5
2018-11-07T03:43:08.324Z,18.48
2018-11-07T03:44:07.978Z,18.47
2018-11-07T03:45:07.992Z,18.51
2018-11-07T03:46:08.007Z,18.49
2018-11-07T03:47:08.257Z,18.48
2018-11-07T03:48:08.184Z,18.47
2018-11-07T03:49:08.038Z,18.49
2018-11-07T03:50:08.247Z,18.5
2018-11-07T03:51:08.027Z,18.47
2018-11-07T03:52:08.140Z,18.48
2018-11-07T03:53:07.924Z,18.47
2018-11-07T03:54:08.052Z,18.47
2018-11-07T03:55:08.040Z,18.47
2018-11-07T03:56:08.043Z,18.47
2018-11-07T03:57:08.064Z,18.47
2018-11-07T03:58:08.374Z,18.47
2018-11-07T03:59:07.996Z,18.46
2018-11-07T04:00:07.979Z,18.45
2018-11-07T04:01:08.055Z,18.47
2018-11-07T04:02:08.352Z,18.48
2018-11-07T04:03:07.999Z,18.46
2018-11-07T04:04:08.281Z,18.45
2018-11-07T04:05:07.908Z,18.44
2018-11-07T04:06:08.101Z,18.46
2018-11-07T04:07:07.829Z,18.46
2018-11-07T04:08:08.113Z,18.44
2018-11-07T04:09:08.068Z,18.46
2018-11-07T04:10:07.926Z,18.46
2018-11-07T04:11:08.091Z,18.46
2018-11-07T04:12:08.025Z,18.46
2018-11-07T04:13:08.102Z,18.45
2018-11-07T04:14:07.959Z,18.45
2018-11-07T04:15:07.966Z,18.47
2018-11-07T04:16:08.122Z,18.47
2018-11-07T04:17:07.900Z,18.47
2018-11-07T04:18:08.484Z,18.48
2018-11-07T04:19:07.960Z,18.47
2018-11-07T04:20:07.996Z,18.48
2018-11-07T04:21:07.856Z,18.47
2018-11-07T04:22:08.042Z,18.5
2018-11-07T04:23:08.061Z,18.48
2018-11-07T04:24:07.965Z,18.48
2018-11-07T04:25:08.027Z,18.48
2018-11-07T04:26:07.910Z,18.48
2018-11-07T04:27:08.032Z,18.45
2018-11-07T04:28:07.834Z,18.45
2018-11-07T04:29:07.967Z,18.44
2018-11-07T04:30:08.081Z,18.44
2018-11-07T04:31:07.919Z,18.45
2018-11-07T04:32:08.071Z,18.45
2018-11-07T04:33:08.042Z,18.47
2018-11-07T04:34:08.001Z,18.47
2018-11-07T04:35:07.874Z,18.46
2018-11-07T04:36:08.470Z,18.46
2018-11-07T04:37:09.202Z,18.46
2018-11-07T04:38:08.124Z,18.44
2018-11-07T04:39:08.056Z,18.44
2018-11-07T04:40:07.950Z,18.46
2018-11-07T04:41:08.024Z,18.46
2018-11-07T04:42:08.333Z,18.45
2018-11-07T04:43:08.064Z,18.44
2018-11-07T04:44:08.135Z,18.44
2018-11-07T04:45:07.980Z,18.45
2018-11-07T04:46:07.819Z,18.45
2018-11-07T04:47:08.172Z,18.48
2018-11-07T04:48:09.259Z,18.47
2018-11-07T04:49:08.098Z,18.45
2018-11-07T04:50:07.812Z,18.46
2018-11-07T04:51:07.990Z,18.45
2018-11-07T04:52:08.169Z,18.45
2018-11-07T04:53:07.897Z,18.43
2018-11-07T04:54:08.242Z,18.44
2018-11-07T04:55:08.022Z,18.44
2018-11-07T04:56:07.958Z,18.44
2018-11-07T04:57:08.417Z,18.44
2018-11-07T04:58:08.167Z,18.44
2018-11-07T04:59:07.989Z,18.43
2018-11-07T05:00:08.000Z,18.43
2018-11-07T05:01:08.059Z,18.42
2018-11-07T05:02:08.042Z,18.45
2018-11-07T05:03:08.286Z,18.45
2018-11-07T05:04:08.308Z,18.44
2018-11-07T05:05:08.248Z,18.43
2018-11-07T05:06:07.974Z,18.43
2018-11-07T05:07:08.130Z,18.42
2018-11-07T05:08:07.965Z,18.43
2018-11-07T05:09:08.491Z,18.42
2018-11-07T05:10:07.908Z,18.42
2018-11-07T05:11:08.071Z,18.45
2018-11-07T05:12:08.254Z,18.46
2018-11-07T05:13:07.973Z,18.48
2018-11-07T05:14:08.030Z,18.44
2018-11-07T05:15:08.076Z,18.44
2018-11-07T05:16:07.844Z,18.44
2018-11-07T05:17:08.052Z,18.46
2018-11-07T05:18:08.182Z,18.47
2018-11-07T05:19:07.929Z,18.44
2018-11-07T05:20:08.039Z,18.49
2018-11-07T05:21:07.868Z,18.44
2018-11-07T05:22:08.153Z,18.44
2018-11-07T05:23:08.633Z,18.44
2018-11-07T05:24:07.961Z,18.45
2018-11-07T05:25:08.331Z,18.45
2018-11-07T05:26:07.986Z,18.44
2018-11-07T05:27:08.139Z,18.44
2018-11-07T05:28:07.839Z,18.44
2018-11-07T05:29:07.890Z,18.43
2018-11-07T05:30:07.907Z,18.42
2018-11-07T05:31:08.189Z,18.43
2018-11-07T05:32:08.172Z,18.43
2018-11-07T05:33:08.108Z,18.43
2018-11-07T05:34:07.984Z,18.43
2018-11-07T05:35:07.809Z,18.44
2018-11-07T05:36:08.040Z,18.44
2018-11-07T05:37:08.060Z,18.41
2018-11-07T05:38:08.361Z,18.43
2018-11-07T05:39:08.096Z,18.42
2018-11-07T05:40:07.925Z,18.43
2018-11-07T05:41:08.264Z,18.42
2018-11-07T05:42:07.910Z,18.42
2018-11-07T05:43:07.896Z,18.42
2018-11-07T05:44:08.082Z,18.42
2018-11-07T05:45:07.875Z,18.41
2018-11-07T05:46:08.036Z,18.43
2018-11-07T05:47:08.138Z,18.43
2018-11-07T05:48:07.991Z,18.43
2018-11-07T05:49:07.911Z,18.44
2018-11-07T05:50:08.307Z,18.44
2018-11-07T05:51:07.979Z,18.44
2018-11-07T05:52:07.829Z,18.44
2018-11-07T05:53:07.983Z,18.44
2018-11-07T05:54:07.832Z,18.44
2018-11-07T05:55:08.080Z,18.44
2018-11-07T05:56:08.037Z,18.44
2018-11-07T05:57:07.900Z,18.43
2018-11-07T05:58:07.992Z,18.45
2018-11-07T05:59:07.921Z,18.43
2018-11-07T06:00:08.084Z,18.43
2018-11-07T06:01:08.031Z,18.44
2018-11-07T06:02:07.878Z,18.45
2018-11-07T06:03:08.120Z,18.45
2018-11-07T06:04:08.252Z,18.44
2018-11-07T06:05:08.032Z,18.44
2018-11-07T06:06:07.889Z,18.44
2018-11-07T06:07:08.326Z,18.44
2018-11-07T06:08:07.992Z,18.44
2018-11-07T06:09:08.284Z,18.44
2018-11-07T06:10:08.296Z,18.42
2018-11-07T06:11:07.904Z,18.44
2018-11-07T06:12:08.277Z,18.43
2018-11-07T06:13:07.770Z,18.43
2018-11-07T06:14:08.050Z,18.42
2018-11-07T06:15:07.970Z,18.44
2018-11-07T06:16:07.968Z,18.43
2018-11-07T06:17:08.090Z,18.44
2018-11-07T06:18:07.975Z,18.43
2018-11-07T06:19:07.977Z,18.43
2018-11-07T06:20:07.992Z,18.43
2018-11-07T06:21:08.007Z,18.45
2018-11-07T06:22:07.918Z,18.45
2018-11-07T06:23:07.872Z,18.43
2018-11-07T06:24:08.116Z,18.44
2018-11-07T06:25:08.159Z,18.45
2018-11-07T06:26:07.950Z,18.46
2018-11-07T06:27:07.827Z,18.44
2018-11-07T06:28:08.313Z,18.44
2018-11-07T06:29:08.185Z,18.44
2018-11-07T06:30:08.217Z,18.43
2018-11-07T06:31:08.038Z,18.43
2018-11-07T06:32:08.326Z,18.43
2018-11-07T06:33:08.183Z,18.43
2018-11-07T06:34:08.196Z,18.43
2018-11-07T06:35:07.961Z,18.43
2018-11-07T06:36:07.915Z,18.44
2018-11-07T06:37:07.910Z,18.47
2018-11-07T06:38:08.559Z,18.45
2018-11-07T06:39:07.848Z,18.45
2018-11-07T06:40:08.103Z,18.45
2018-11-07T06:41:07.832Z,18.44
2018-11-07T06:42:08.286Z,18.44
2018-11-07T06:43:07.875Z,18.44
2018-11-07T06:44:08.005Z,18.43
2018-11-07T06:45:08.223Z,18.45
2018-11-07T06:46:08.123Z,18.46
2018-11-07T06:47:07.995Z,18.47
2018-11-07T06:48:07.847Z,18.46
2018-11-07T06:49:08.289Z,18.47
2018-11-07T06:50:08.259Z,18.46
2018-11-07T06:51:07.888Z,18.46
2018-11-07T06:52:08.069Z,18.45
2018-11-07T06:53:07.871Z,18.45
2018-11-07T06:54:08.077Z,18.44
2018-11-07T06:55:08.031Z,18.44
2018-11-07T06:56:08.011Z,18.46
2018-11-07T06:57:08.003Z,18.46
2018-11-07T06:58:08.053Z,18.48
2018-11-07T06:59:08.018Z,18.47
2018-11-07T07:00:07.855Z,18.46
2018-11-07T07:01:08.005Z,18.48
2018-11-07T07:02:07.773Z,18.46
2018-11-07T07:03:07.932Z,18.46
2018-11-07T07:04:08.166Z,18.45
2018-11-07T07:05:08.405Z,18.45
2018-11-07T07:06:08.351Z,18.45
2018-11-07T07:07:07.908Z,18.45
2018-11-07T07:08:08.252Z,18.45
2018-11-07T07:09:07.896Z,18.45
2018-11-07T07:10:08.055Z,18.45
2018-11-07T07:11:07.846Z,18.45
2018-11-07T07:12:07.955Z,18.45
2018-11-07T07:13:08.089Z,18.46
2018-11-07T07:14:07.912Z,18.46
2018-11-07T07:15:08.748Z,18.44
2018-11-07T07:16:07.879Z,18.45
2018-11-07T07:17:07.988Z,18.45
2018-11-07T07:18:07.873Z,18.44
2018-11-07T07:19:07.907Z,18.45
2018-11-07T07:20:07.912Z,18.45
2018-11-07T07:21:07.918Z,18.45
2018-11-07T07:22:08.002Z,18.46
2018-11-07T07:23:07.818Z,18.47
2018-11-07T07:24:07.972Z,18.46
2018-11-07T07:25:07.910Z,18.49
2018-11-07T07:26:07.797Z,18.47
2018-11-07T07:27:08.012Z,18.46
2018-11-07T07:28:07.891Z,18.45
2018-11-07T07:29:07.978Z,18.44
2018-11-07T07:30:07.872Z,18.46
2018-11-07T07:31:08.030Z,18.46
2018-11-07T07:32:07.802Z,18.5
2018-11-07T07:33:07.953Z,18.47
2018-11-07T07:34:08.022Z,18.48
2018-11-07T07:35:07.931Z,18.47
2018-11-07T07:36:07.950Z,18.47
2018-11-07T07:37:07.806Z,18.47
2018-11-07T07:38:08.168Z,18.46
2018-11-07T07:39:08.131Z,18.49
2018-11-07T07:40:08.022Z,18.31
2018-11-07T07:41:07.753Z,18.24
2018-11-07T07:42:08.008Z,18.15
2018-11-07T07:43:08.301Z,18.09
2018-11-07T07:44:08.286Z,18.05
2018-11-07T07:45:08.065Z,18
2018-11-07T07:46:08.161Z,18.01
2018-11-07T07:47:07.912Z,17.92
2018-11-07T07:48:08.056Z,17.86
2018-11-07T07:49:07.971Z,17.75
2018-11-07T07:50:08.356Z,17.75
2018-11-07T07:51:07.813Z,17.73
2018-11-07T07:52:08.316Z,17.69
2018-11-07T07:53:07.989Z,17.66
2018-11-07T07:54:08.085Z,17.64
2018-11-07T07:55:08.081Z,17.61
2018-11-07T07:56:07.986Z,17.58
2018-11-07T07:57:07.960Z,17.6
2018-11-07T07:58:07.798Z,17.57
2018-11-07T07:59:08.006Z,17.55
2018-11-07T08:00:07.790Z,17.56
2018-11-07T08:01:07.887Z,17.56
2018-11-07T08:02:08.366Z,17.55
2018-11-07T08:03:07.884Z,17.55
2018-11-07T08:04:08.123Z,17.54
2018-11-07T08:05:07.824Z,17.51
2018-11-07T08:06:07.945Z,17.53
2018-11-07T08:07:08.202Z,17.53
2018-11-07T08:08:08.140Z,17.53
2018-11-07T08:09:08.309Z,17.55
2018-11-07T08:10:07.859Z,17.56
2018-11-07T08:11:07.974Z,17.6
2018-11-07T08:12:08.166Z,17.6
2018-11-07T08:13:07.941Z,17.6
2018-11-07T08:14:08.014Z,17.66
2018-11-07T08:15:07.822Z,17.57
2018-11-07T08:16:08.132Z,17.51
2018-11-07T08:17:08.270Z,17.5
2018-11-07T08:18:08.362Z,17.48
2018-11-07T08:19:07.945Z,17.45
2018-11-07T08:20:08.065Z,17.46
2018-11-07T08:21:07.964Z,17.5
2018-11-07T08:22:08.172Z,17.48
2018-11-07T08:23:08.037Z,17.46
2018-11-07T08:24:07.904Z,17.4
2018-11-07T08:25:07.942Z,17.33
2018-11-07T08:26:08.116Z,17.36
2018-11-07T08:27:08.000Z,17.37
2018-11-07T08:28:08.119Z,17.34
2018-11-07T08:29:07.937Z,17.33
2018-11-07T08:30:08.328Z,17.41
2018-11-07T08:31:07.863Z,17.36
2018-11-07T08:32:07.932Z,17.43
2018-11-07T08:33:07.944Z,17.43
2018-11-07T08:34:07.893Z,17.44
2018-11-07T08:35:07.852Z,17.39
2018-11-07T08:36:08.079Z,17.33
2018-11-07T08:37:08.318Z,17.32
2018-11-07T08:38:08.082Z,17.38
2018-11-07T08:39:08.194Z,17.31
2018-11-07T08:40:07.890Z,17.24
2018-11-07T08:41:07.968Z,17.26
2018-11-07T08:42:07.866Z,17.25
2018-11-07T08:43:07.989Z,17.27
2018-11-07T08:44:08.457Z,17.25
2018-11-07T08:45:07.810Z,17.18
2018-11-07T08:46:08.057Z,17.17
2018-11-07T08:47:07.894Z,17.2
2018-11-07T08:48:08.076Z,17.19
2018-11-07T08:49:07.853Z,17.12
2018-11-07T08:50:07.889Z,17.16
2018-11-07T08:51:08.077Z,17.15
2018-11-07T08:52:07.965Z,17.03
2018-11-07T08:53:07.976Z,17.12
2018-11-07T08:54:08.010Z,17.11
2018-11-07T08:55:07.980Z,17.04
2018-11-07T08:56:07.830Z,17.02
2018-11-07T08:57:07.837Z,17.08
2018-11-07T08:58:07.972Z,17.01
2018-11-07T08:59:07.821Z,17.11
2018-11-07T09:00:07.951Z,17.08
2018-11-07T09:01:07.798Z,17.09
2018-11-07T09:02:08.042Z,17.02
2018-11-07T09:03:09.039Z,17.01
2018-11-07T09:04:07.859Z,17.08
2018-11-07T09:05:07.747Z,17.04
2018-11-07T09:06:07.860Z,16.99
2018-11-07T09:07:07.979Z,17.02
2018-11-07T09:08:07.779Z,17
2018-11-07T09:09:07.931Z,16.97
2018-11-07T09:10:07.830Z,17
2018-11-07T09:11:07.864Z,16.98
2018-11-07T09:12:08.088Z,17.01
2018-11-07T09:13:07.878Z,17.01
2018-11-07T09:14:07.945Z,16.95
2018-11-07T09:15:08.459Z,16.99
2018-11-07T09:16:07.958Z,17
2018-11-07T09:17:07.834Z,16.92
2018-11-07T09:18:07.846Z,16.94
2018-11-07T09:19:07.880Z,16.89
2018-11-07T09:20:08.237Z,16.89
2018-11-07T09:21:07.902Z,16.94
2018-11-07T09:22:08.312Z,16.92
2018-11-07T09:23:08.099Z,16.9
2018-11-07T09:24:08.021Z,16.93
2018-11-07T09:25:07.991Z,16.97
2018-11-07T09:26:07.714Z,16.97
2018-11-07T09:27:07.852Z,16.96
2018-11-07T09:28:08.232Z,16.93
2018-11-07T09:29:08.060Z,16.93
2018-11-07T09:30:07.966Z,16.91
2018-11-07T09:31:07.749Z,16.95
2018-11-07T09:32:07.854Z,16.96
2018-11-07T09:33:07.963Z,16.89
2018-11-07T09:34:07.845Z,16.91
2018-11-07T09:35:07.935Z,16.94
2018-11-07T09:36:07.763Z,16.92
2018-11-07T09:37:08.219Z,16.92
2018-11-07T09:38:07.930Z,16.92
2018-11-07T09:39:08.126Z,16.92
2018-11-07T09:40:07.710Z,16.9
2018-11-07T09:41:08.147Z,16.94
2018-11-07T09:42:08.171Z,16.94
2018-11-07T09:43:07.923Z,16.92
2018-11-07T09:44:08.142Z,16.89
2018-11-07T09:45:08.020Z,16.93
2018-11-07T09:46:08.281Z,16.94
2018-11-07T09:47:07.717Z,16.92
2018-11-07T09:48:07.906Z,16.88
2018-11-07T09:49:07.718Z,16.95
2018-11-07T09:50:08.099Z,16.96
2018-11-07T09:51:08.161Z,16.96
2018-11-07T09:52:07.773Z,16.93
2018-11-07T09:53:08.048Z,17
2018-11-07T09:54:08.226Z,16.98
2018-11-07T09:55:08.289Z,17.02
2018-11-07T09:56:09.096Z,16.98
2018-11-07T09:57:07.934Z,16.98
2018-11-07T09:58:08.196Z,17.01
2018-11-07T09:59:07.793Z,17.02
2018-11-07T10:00:07.880Z,17.05
2018-11-07T10:01:07.782Z,17.03
2018-11-07T10:02:08.213Z,17.03
2018-11-07T10:03:07.711Z,17.05
2018-11-07T10:04:07.841Z,17.05
2018-11-07T10:05:08.015Z,17.07
2018-11-07T10:06:07.881Z,17.09
2018-11-07T10:07:07.863Z,17.09
2018-11-07T10:08:08.025Z,17.11
2018-11-07T10:09:08.673Z,17.12
2018-11-07T10:10:07.751Z,17.12
2018-11-07T10:11:07.896Z,17.16
2018-11-07T10:12:07.890Z,17.15
2018-11-07T10:13:08.050Z,17.16
2018-11-07T10:14:07.986Z,17.17
2018-11-07T10:15:08.055Z,17.19
2018-11-07T10:16:08.575Z,17.22
2018-11-07T10:17:07.754Z,17.25
2018-11-07T10:18:08.261Z,17.25
2018-11-07T10:19:07.679Z,17.26
2018-11-07T10:20:08.231Z,17.27
2018-11-07T10:21:08.457Z,17.28
2018-11-07T10:22:07.825Z,17.3
2018-11-07T10:23:07.865Z,17.35
2018-11-07T10:24:07.725Z,17.33
2018-11-07T10:25:07.919Z,17.32
2018-11-07T10:26:07.700Z,17.34
2018-11-07T10:27:08.088Z,17.32
2018-11-07T10:28:08.356Z,17.35
2018-11-07T10:29:08.447Z,17.35
2018-11-07T10:30:08.296Z,17.38
2018-11-07T10:31:07.986Z,17.35
2018-11-07T10:32:07.768Z,17.34
2018-11-07T10:33:07.836Z,17.35
2018-11-07T10:34:07.719Z,17.35
2018-11-07T10:35:07.938Z,17.37
2018-11-07T10:36:07.673Z,17.38
2018-11-07T10:37:07.860Z,17.4
2018-11-07T10:38:08.057Z,17.4
2018-11-07T10:39:07.740Z,17.41
2018-11-07T10:40:08.461Z,17.41
2018-11-07T10:41:08.004Z,17.44
2018-11-07T10:42:08.057Z,17.43
2018-11-07T10:43:08.083Z,17.42
2018-11-07T10:44:08.241Z,17.4
2018-11-07T10:45:08.093Z,17.39
2018-11-07T10:46:07.856Z,17.39
2018-11-07T10:47:08.739Z,17.39
2018-11-07T10:48:07.968Z,17.38
2018-11-07T10:49:07.752Z,17.39
2018-11-07T10:50:08.115Z,17.38
2018-11-07T10:51:07.904Z,17.39
2018-11-07T10:52:07.990Z,17.38
2018-11-07T10:53:07.861Z,17.38
2018-11-07T10:54:07.896Z,17.38
2018-11-07T10:55:09.039Z,17.39
2018-11-07T10:56:07.868Z,17.46
2018-11-07T10:57:08.153Z,17.41
2018-11-07T10:58:08.219Z,17.4
2018-11-07T10:59:07.822Z,17.4
2018-11-07T11:00:07.830Z,17.42
2018-11-07T11:01:08.082Z,17.44
2018-11-07T11:02:08.209Z,17.45
2018-11-07T11:03:07.775Z,17.47
2018-11-07T11:04:08.108Z,17.48
2018-11-07T11:05:07.937Z,17.44
2018-11-07T11:06:07.893Z,17.45
2018-11-07T11:07:07.683Z,17.48
2018-11-07T11:08:08.043Z,17.48
2018-11-07T11:09:07.870Z,17.46
2018-11-07T11:10:07.729Z,17.43
2018-11-07T11:11:08.218Z,17.48
2018-11-07T11:12:07.913Z,17.47
2018-11-07T11:13:08.088Z,17.5
2018-11-07T11:14:08.045Z,17.5
2018-11-07T11:15:08.027Z,17.53
2018-11-07T11:16:08.107Z,17.54
2018-11-07T11:17:07.727Z,17.56
2018-11-07T11:18:07.868Z,17.56
2018-11-07T11:19:07.741Z,17.58
2018-11-07T11:20:07.873Z,17.59
2018-11-07T11:21:07.948Z,17.6
2018-11-07T11:22:07.834Z,17.61
2018-11-07T11:23:07.938Z,17.63
2018-11-07T11:24:07.683Z,17.64
2018-11-07T11:25:07.786Z,17.65
2018-11-07T11:26:09.026Z,17.66
2018-11-07T11:27:07.827Z,17.67
2018-11-07T11:28:07.776Z,17.68
2018-11-07T11:29:07.840Z,17.69
2018-11-07T11:30:08.126Z,17.69
2018-11-07T11:31:07.678Z,17.7
2018-11-07T11:32:08.112Z,17.71
2018-11-07T11:33:07.761Z,17.71
2018-11-07T11:34:07.935Z,17.72
2018-11-07T11:35:08.475Z,17.73
2018-11-07T11:36:07.730Z,17.73
2018-11-07T11:37:08.143Z,17.74
2018-11-07T11:38:07.940Z,17.74
2018-11-07T11:39:07.779Z,17.75
2018-11-07T11:40:07.869Z,17.76
2018-11-07T11:41:08.106Z,17.76
2018-11-07T11:42:08.204Z,17.76
2018-11-07T11:43:07.711Z,17.77
2018-11-07T11:44:07.809Z,17.78
2018-11-07T11:45:08.814Z,17.78
2018-11-07T11:46:07.768Z,17.78
2018-11-07T11:47:07.938Z,17.79
2018-11-07T11:48:08.026Z,17.79
2018-11-07T11:49:07.969Z,17.8
2018-11-07T11:50:07.800Z,17.8
2018-11-07T11:51:07.837Z,17.81
2018-11-07T11:52:08.254Z,17.81
2018-11-07T11:53:07.740Z,17.82
2018-11-07T11:54:07.802Z,17.83
2018-11-07T11:55:07.755Z,17.82
2018-11-07T11:56:07.852Z,17.83
2018-11-07T11:57:09.065Z,17.84
2018-11-07T11:58:07.753Z,17.84
2018-11-07T11:59:07.776Z,17.84
2018-11-07T12:00:08.322Z,17.84
2018-11-07T12:01:07.813Z,17.85
2018-11-07T12:02:07.713Z,17.85
2018-11-07T12:03:07.775Z,17.86
2018-11-07T12:04:08.021Z,17.86
2018-11-07T12:05:07.769Z,17.87
2018-11-07T12:06:08.043Z,17.87
2018-11-07T12:07:07.718Z,17.88
2018-11-07T12:08:07.776Z,17.88
2018-11-07T12:09:08.014Z,17.88
2018-11-07T12:10:07.814Z,17.88
2018-11-07T12:11:07.853Z,17.9
2018-11-07T12:12:08.455Z,17.89
2018-11-07T12:13:08.247Z,17.89
2018-11-07T12:14:07.886Z,17.89
2018-11-07T12:15:07.931Z,17.91
2018-11-07T12:16:08.209Z,17.91
2018-11-07T12:17:07.824Z,17.92
2018-11-07T12:18:07.818Z,17.91
2018-11-07T12:19:07.683Z,17.92
2018-11-07T12:20:07.885Z,17.93
2018-11-07T12:21:07.769Z,17.93
2018-11-07T12:22:07.712Z,17.93
2018-11-07T12:23:08.292Z,17.94
2018-11-07T12:24:07.777Z,17.94
2018-11-07T12:25:07.990Z,17.94
2018-11-07T12:26:07.922Z,17.95
2018-11-07T12:27:07.835Z,17.95
2018-11-07T12:28:07.949Z,17.95
2018-11-07T12:29:07.710Z,17.95
2018-11-07T12:30:08.239Z,17.96
2018-11-07T12:31:07.741Z,17.96
2018-11-07T12:32:07.886Z,17.98
2018-11-07T12:33:07.884Z,17.97
2018-11-07T12:34:07.761Z,17.97
2018-11-07T12:35:07.847Z,17.97
2018-11-07T12:36:07.890Z,17.97
2018-11-07T12:37:07.898Z,17.98
2018-11-07T12:38:08.137Z,17.97
2018-11-07T12:39:07.938Z,17.98
2018-11-07T12:40:07.867Z,17.98
2018-11-07T12:41:07.825Z,17.98
2018-11-07T12:42:07.833Z,17.98
2018-11-07T12:43:07.834Z,17.98
2018-11-07T12:44:07.843Z,17.98
2018-11-07T12:45:08.136Z,17.98
2018-11-07T12:46:08.065Z,17.99
2018-11-07T12:47:08.039Z,18
2018-11-07T12:48:07.733Z,18
2018-11-07T12:49:07.777Z,18
2018-11-07T12:50:07.855Z,18.01
2018-11-07T12:51:07.852Z,18.01
2018-11-07T12:52:08.106Z,18.02
2018-11-07T12:53:07.665Z,18.02
2018-11-07T12:54:07.923Z,18.02
2018-11-07T12:55:07.679Z,18.03